Time;durP1;ratioP1;P1;durP2;ratioP2;P2;SDS_P1;SDS_P2;PMS_P1;PMS_P2;Temp;Humidity;BMP_temperature;BMP_pressure;BME280_temperature;BME280_humidity;BME280_pressure;Samples;Min_cycle;Max_cycle;Signal;HPM_P1;HPM_P2
2023/08/29 00:00:48;;;;;;;9.60;7.30;;;;;;;;;;107990;293;39768;-40
2023/08/29 00:03:33;;;;;;;10.40;6.80;;;;;;;;;;108006;293;42854;-39
2023/08/29 00:06:07;;;;;;;9.40;6.70;;;;;;;;;;107994;293;42103;-39
2023/08/29 00:08:42;;;;;;;9.80;6.80;;;;;;;;;;107956;293;38745;-40
2023/08/29 00:11:16;;;;;;;9.00;6.60;;;;;;;;;;108020;293;39356;-39
2023/08/29 00:13:52;;;;;;;10.60;7.20;;;;;;;;;;108027;293;42877;-40
2023/08/29 00:16:26;;;;;;;11.80;8.20;;;;;;;;;;107996;293;41911;-40
2023/08/29 00:19:00;;;;;;;11.40;8.10;;;;;;;;;;107984;293;38739;-39
2023/08/29 00:21:35;;;;;;;10.80;7.40;;;;;;;;;;108009;293;39431;-39
2023/08/29 00:24:10;;;;;;;9.00;6.50;;;;;;;;;;107998;293;42735;-39
2023/08/29 00:26:44;;;;;;;8.20;6.00;;;;;;;;;;107984;293;42030;-40
2023/08/29 00:29:17;;;;;;;8.50;6.00;;;;;;;;;;107981;293;38512;-40
2023/08/29 00:31:50;;;;;;;7.40;5.70;;;;;;;;;;107991;293;39426;-40
2023/08/29 00:34:23;;;;;;;8.40;6.00;;;;;;;;;;107962;293;42828;-40
2023/08/29 00:36:57;;;;;;;6.70;5.70;;;;;;;;;;107998;293;43197;-40
2023/08/29 00:39:30;;;;;;;7.40;5.50;;;;;;;;;;107984;293;38950;-40
2023/08/29 00:42:04;;;;;;;6.70;5.40;;;;;;;;;;107972;294;39913;-40
2023/08/29 00:44:39;;;;;;;7.60;5.70;;;;;;;;;;107968;294;42713;-40
2023/08/29 00:47:13;;;;;;;7.60;6.10;;;;;;;;;;108015;294;42253;-40
2023/08/29 00:49:49;;;;;;;8.20;6.30;;;;;;;;;;107960;294;38488;-40
2023/08/29 00:52:24;;;;;;;8.20;6.20;;;;;;;;;;108015;294;39822;-40
2023/08/29 00:54:59;;;;;;;7.60;5.90;;;;;;;;;;108029;294;43039;-40
2023/08/29 00:57:34;;;;;;;9.40;6.70;;;;;;;;;;108060;294;42060;-40
2023/08/29 01:00:12;;;;;;;9.40;7.10;;;;;;;;;;108019;294;38525;-40
2023/08/29 01:02:53;;;;;;;8.90;6.40;;;;;;;;;;108024;294;39594;-40
2023/08/29 01:05:33;;;;;;;8.30;5.90;;;;;;;;;;107928;295;43047;-39
2023/08/29 01:08:08;;;;;;;6.80;5.80;;;;;;;;;;107994;295;42112;-39
2023/08/29 01:10:56;;;;;;;6.40;5.40;;;;;;;;;;107979;295;39046;-40
2023/08/29 01:13:42;;;;;;;7.70;5.90;;;;;;;;;;108019;295;40827;-40
2023/08/29 01:16:22;;;;;;;7.60;5.40;;;;;;;;;;108021;295;42498;-40
2023/08/29 01:18:57;;;;;;;6.30;5.40;;;;;;;;;;107983;295;42131;-40
2023/08/29 01:21:48;;;;;;;7.00;5.70;;;;;;;;;;107933;295;39028;-40
2023/08/29 01:24:30;;;;;;;6.80;5.30;;;;;;;;;;107930;295;39932;-40
2023/08/29 01:27:05;;;;;;;6.90;5.60;;;;;;;;;;107970;295;43967;-40
2023/08/29 01:29:40;;;;;;;7.90;6.00;;;;;;;;;;107917;295;43198;-40
2023/08/29 01:32:13;;;;;;;6.80;5.60;;;;;;;;;;107959;295;38743;-40
2023/08/29 01:34:49;;;;;;;6.90;5.60;;;;;;;;;;107966;295;39925;-40
2023/08/29 01:37:22;;;;;;;6.10;5.40;;;;;;;;;;107962;295;43997;-40
2023/08/29 01:39:57;;;;;;;6.80;5.00;;;;;;;;;;107895;294;42070;-40
2023/08/29 01:42:31;;;;;;;6.40;5.20;;;;;;;;;;108029;295;38781;-40
2023/08/29 01:45:04;;;;;;;6.50;5.00;;;;;;;;;;108057;295;39751;-39
2023/08/29 01:47:38;;;;;;;6.30;5.00;;;;;;;;;;107937;295;43935;-39
2023/08/29 01:50:15;;;;;;;7.20;5.00;;;;;;;;;;107999;295;42099;-40
2023/08/29 01:52:48;;;;;;;6.40;4.80;;;;;;;;;;108044;295;38768;-40
2023/08/29 01:55:24;;;;;;;6.40;4.70;;;;;;;;;;108070;294;39603;-39
2023/08/29 01:57:59;;;;;;;6.40;4.60;;;;;;;;;;108000;295;43975;-40
2023/08/29 02:00:35;;;;;;;6.10;4.40;;;;;;;;;;107991;295;42220;-39
2023/08/29 02:03:10;;;;;;;5.90;4.40;;;;;;;;;;107912;294;176773;-39
2023/08/29 02:05:44;;;;;;;5.40;4.30;;;;;;;;;;107992;293;39639;-39
2023/08/29 02:08:18;;;;;;;6.00;4.50;;;;;;;;;;108001;294;43963;-40
2023/08/29 02:10:53;;;;;;;5.80;4.30;;;;;;;;;;107959;294;43292;-39
2023/08/29 02:13:27;;;;;;;5.60;4.50;;;;;;;;;;107932;293;38758;-40
2023/08/29 02:16:03;;;;;;;6.10;4.20;;;;;;;;;;107910;293;39753;-40
2023/08/29 02:18:36;;;;;;;5.30;4.00;;;;;;;;;;107948;293;42468;-40
2023/08/29 02:21:09;;;;;;;5.90;3.90;;;;;;;;;;107919;293;42121;-40
2023/08/29 02:23:43;;;;;;;6.00;4.10;;;;;;;;;;108018;293;38830;-40
2023/08/29 02:26:16;;;;;;;5.50;3.80;;;;;;;;;;107997;293;39675;-40
2023/08/29 02:28:54;;;;;;;6.20;4.20;;;;;;;;;;107955;293;42780;-40
2023/08/29 02:31:27;;;;;;;5.20;3.80;;;;;;;;;;107940;293;42046;-39
2023/08/29 02:34:01;;;;;;;6.10;3.90;;;;;;;;;;107945;293;39969;-40
2023/08/29 02:36:34;;;;;;;5.00;3.40;;;;;;;;;;107996;293;40714;-40
2023/08/29 02:39:10;;;;;;;5.00;3.60;;;;;;;;;;107963;293;43850;-39
2023/08/29 02:41:46;;;;;;;5.50;3.80;;;;;;;;;;107920;293;41878;-39
2023/08/29 02:44:19;;;;;;;5.20;3.50;;;;;;;;;;108003;293;38697;-39
2023/08/29 02:46:54;;;;;;;4.90;3.10;;;;;;;;;;107953;293;39616;-40
2023/08/29 02:49:27;;;;;;;5.20;3.00;;;;;;;;;;108063;293;44148;-40
2023/08/29 02:52:01;;;;;;;5.20;3.00;;;;;;;;;;107986;293;42209;-40
2023/08/29 02:54:35;;;;;;;5.10;3.00;;;;;;;;;;107969;293;38463;-40
2023/08/29 02:57:08;;;;;;;4.50;3.00;;;;;;;;;;108028;293;40824;-40
2023/08/29 02:59:41;;;;;;;5.20;3.30;;;;;;;;;;107972;293;44006;-40
2023/08/29 03:02:14;;;;;;;4.90;3.20;;;;;;;;;;107237;293;892296;-40
2023/08/29 03:04:48;;;;;;;4.90;3.20;;;;;;;;;;107956;293;38755;-40
2023/08/29 03:07:22;;;;;;;4.60;3.20;;;;;;;;;;107944;293;39584;-40
2023/08/29 03:09:57;;;;;;;4.80;3.20;;;;;;;;;;108017;293;42776;-42
2023/08/29 03:12:31;;;;;;;4.40;2.80;;;;;;;;;;107950;293;41838;-40
2023/08/29 03:15:06;;;;;;;4.70;3.00;;;;;;;;;;107996;293;38802;-40
2023/08/29 03:17:40;;;;;;;4.50;2.90;;;;;;;;;;108022;293;39670;-40
2023/08/29 03:20:15;;;;;;;5.00;3.00;;;;;;;;;;108009;293;44031;-40
2023/08/29 03:22:49;;;;;;;5.40;2.80;;;;;;;;;;107862;293;175690;-40
2023/08/29 03:25:25;;;;;;;6.20;3.00;;;;;;;;;;108007;293;39179;-40
2023/08/29 03:27:58;;;;;;;4.40;2.70;;;;;;;;;;107971;293;39676;-39
2023/08/29 03:30:32;;;;;;;4.60;2.60;;;;;;;;;;107933;293;42967;-38
2023/08/29 03:33:07;;;;;;;4.30;2.70;;;;;;;;;;107986;293;42099;-39
2023/08/29 03:35:40;;;;;;;4.60;2.60;;;;;;;;;;108024;293;38773;-38
2023/08/29 03:38:13;;;;;;;4.40;2.80;;;;;;;;;;107917;293;39648;-39
2023/08/29 03:40:46;;;;;;;4.90;2.30;;;;;;;;;;107985;293;44190;-38
2023/08/29 03:43:20;;;;;;;5.40;2.90;;;;;;;;;;107936;293;42052;-39
2023/08/29 03:46:00;;;;;;;4.50;2.50;;;;;;;;;;107977;293;38735;-39
2023/08/29 03:48:35;;;;;;;4.00;2.40;;;;;;;;;;107993;293;40852;-39
2023/08/29 03:51:09;;;;;;;4.80;2.70;;;;;;;;;;107856;293;175152;-39
2023/08/29 03:53:43;;;;;;;4.10;2.60;;;;;;;;;;107917;293;41999;-39
2023/08/29 03:56:16;;;;;;;4.60;2.50;;;;;;;;;;107957;293;38786;-39
2023/08/29 03:58:51;;;;;;;4.50;2.60;;;;;;;;;;107964;293;41002;-40
2023/08/29 04:01:24;;;;;;;4.60;2.60;;;;;;;;;;107926;293;42536;-39
2023/08/29 04:03:59;;;;;;;4.20;2.40;;;;;;;;;;107944;293;42209;-39
2023/08/29 04:06:35;;;;;;;4.20;2.50;;;;;;;;;;107976;293;38733;-40
2023/08/29 04:09:10;;;;;;;4.40;2.50;;;;;;;;;;108001;293;41084;-39
2023/08/29 04:11:43;;;;;;;5.00;2.50;;;;;;;;;;107974;293;43139;-40
2023/08/29 04:14:39;;;;;;;4.60;2.60;;;;;;;;;;107812;293;175623;-40
2023/08/29 04:17:34;;;;;;;4.50;2.60;;;;;;;;;;107961;293;40329;-40
2023/08/29 04:20:28;;;;;;;4.20;2.20;;;;;;;;;;107884;293;39673;-40
2023/08/29 04:23:03;;;;;;;6.10;2.60;;;;;;;;;;107884;293;43006;-40
2023/08/29 04:25:39;;;;;;;4.70;2.50;;;;;;;;;;107971;293;41992;-39
2023/08/29 04:28:19;;;;;;;5.20;2.60;;;;;;;;;;107927;293;40029;-39
2023/08/29 04:30:54;;;;;;;5.50;2.70;;;;;;;;;;107984;293;40873;-40
2023/08/29 04:33:27;;;;;;;5.10;2.80;;;;;;;;;;107995;293;42787;-40
2023/08/29 04:36:03;;;;;;;4.40;2.40;;;;;;;;;;107988;293;42280;-39
2023/08/29 04:38:36;;;;;;;5.90;2.80;;;;;;;;;;107983;293;38982;-41
2023/08/29 04:41:09;;;;;;;5.40;2.70;;;;;;;;;;107987;293;40866;-40
2023/08/29 04:43:43;;;;;;;3.90;2.40;;;;;;;;;;107976;293;42928;-40
2023/08/29 04:46:18;;;;;;;4.90;2.60;;;;;;;;;;107978;293;42097;-40
2023/08/29 04:48:51;;;;;;;4.30;2.50;;;;;;;;;;107978;293;38801;-40
2023/08/29 04:51:25;;;;;;;4.10;2.60;;;;;;;;;;107998;293;39644;-40
2023/08/29 04:53:58;;;;;;;5.20;2.70;;;;;;;;;;107984;293;42825;-40
2023/08/29 04:56:31;;;;;;;4.90;2.80;;;;;;;;;;108017;293;43450;-40
2023/08/29 04:59:05;;;;;;;4.50;2.60;;;;;;;;;;108008;293;38978;-40
2023/08/29 05:01:38;;;;;;;5.40;3.10;;;;;;;;;;107981;293;39746;-40
2023/08/29 05:04:13;;;;;;;5.60;3.10;;;;;;;;;;108004;293;42539;-40
2023/08/29 05:06:47;;;;;;;5.20;2.80;;;;;;;;;;107990;293;42342;-40
2023/08/29 05:09:20;;;;;;;5.60;2.80;;;;;;;;;;107581;293;328222;-40
2023/08/29 05:11:53;;;;;;;4.10;2.80;;;;;;;;;;107992;293;39644;-41
2023/08/29 05:14:27;;;;;;;4.30;2.80;;;;;;;;;;107925;293;42832;-40
2023/08/29 05:17:00;;;;;;;4.50;3.00;;;;;;;;;;107963;293;42087;-40
2023/08/29 05:19:35;;;;;;;4.30;2.70;;;;;;;;;;107969;293;38875;-40
2023/08/29 05:22:10;;;;;;;5.10;3.00;;;;;;;;;;108049;293;39406;-40
2023/08/29 05:24:43;;;;;;;4.30;2.70;;;;;;;;;;107979;293;42879;-40
2023/08/29 05:27:17;;;;;;;4.80;3.00;;;;;;;;;;107997;293;42065;-40
2023/08/29 05:29:52;;;;;;;4.70;3.10;;;;;;;;;;108020;293;38791;-40
2023/08/29 05:32:25;;;;;;;4.40;2.90;;;;;;;;;;107988;293;40718;-40
2023/08/29 05:35:00;;;;;;;5.20;3.20;;;;;;;;;;107958;293;44044;-40
2023/08/29 05:37:33;;;;;;;4.80;3.20;;;;;;;;;;107999;293;42047;-40
2023/08/29 05:40:09;;;;;;;5.00;2.80;;;;;;;;;;108006;293;38704;-40
2023/08/29 05:42:42;;;;;;;5.30;3.20;;;;;;;;;;108043;293;39665;-40
2023/08/29 05:45:16;;;;;;;5.10;2.90;;;;;;;;;;107884;293;196039;-40
2023/08/29 05:47:50;;;;;;;4.90;3.00;;;;;;;;;;107975;293;42434;-40
2023/08/29 05:50:23;;;;;;;4.10;2.90;;;;;;;;;;108007;293;38808;-39
2023/08/29 05:52:58;;;;;;;4.50;2.90;;;;;;;;;;107948;293;39405;-40
2023/08/29 05:55:31;;;;;;;4.70;3.10;;;;;;;;;;107958;293;42824;-39
2023/08/29 05:58:05;;;;;;;4.70;3.10;;;;;;;;;;107984;293;42118;-40
2023/08/29 06:00:39;;;;;;;5.20;2.90;;;;;;;;;;108041;293;38751;-40
2023/08/29 06:03:13;;;;;;;5.30;3.00;;;;;;;;;;107958;293;40758;-40
2023/08/29 06:05:50;;;;;;;5.10;3.10;;;;;;;;;;107965;293;43983;-40
2023/08/29 06:08:26;;;;;;;5.10;3.00;;;;;;;;;;107970;293;43263;-40
2023/08/29 06:11:00;;;;;;;4.80;3.30;;;;;;;;;;107990;293;38720;-40
2023/08/29 06:13:33;;;;;;;4.70;3.00;;;;;;;;;;107966;293;39609;-40
2023/08/29 06:16:07;;;;;;;4.90;3.10;;;;;;;;;;107317;293;892522;-40
2023/08/29 06:18:43;;;;;;;4.90;3.00;;;;;;;;;;107995;293;42055;-40
2023/08/29 06:21:17;;;;;;;5.30;3.00;;;;;;;;;;108015;293;38700;-40
2023/08/29 06:23:51;;;;;;;4.60;3.30;;;;;;;;;;108006;293;39775;-41
2023/08/29 06:26:24;;;;;;;4.80;3.00;;;;;;;;;;107956;293;44192;-39
2023/08/29 06:28:57;;;;;;;5.50;3.40;;;;;;;;;;108019;293;42081;-40
2023/08/29 06:31:31;;;;;;;5.20;3.00;;;;;;;;;;107988;293;38792;-39
2023/08/29 06:34:05;;;;;;;4.70;3.00;;;;;;;;;;108023;293;40807;-40
2023/08/29 06:36:38;;;;;;;5.10;2.90;;;;;;;;;;107958;293;42943;-40
2023/08/29 06:39:12;;;;;;;4.90;3.10;;;;;;;;;;107952;289;41866;-40
2023/08/29 06:41:46;;;;;;;5.30;3.30;;;;;;;;;;107979;293;38776;-40
2023/08/29 06:44:19;;;;;;;5.90;3.00;;;;;;;;;;107952;291;40745;-38
2023/08/29 06:46:53;;;;;;;6.10;3.20;;;;;;;;;;107947;293;43968;-38
2023/08/29 06:49:27;;;;;;;6.30;3.10;;;;;;;;;;107993;285;42204;-39
2023/08/29 06:52:03;;;;;;;5.30;3.00;;;;;;;;;;108008;293;38959;-39
2023/08/29 06:54:39;;;;;;;6.20;3.10;;;;;;;;;;108006;293;40622;-41
2023/08/29 06:57:14;;;;;;;5.20;3.30;;;;;;;;;;107965;285;42814;-38
2023/08/29 06:59:47;;;;;;;5.10;2.90;;;;;;;;;;108002;293;42342;-38
2023/08/29 07:02:22;;;;;;;5.80;3.50;;;;;;;;;;107993;285;38683;-40
2023/08/29 07:04:56;;;;;;;4.80;3.10;;;;;;;;;;108001;293;39776;-40
2023/08/29 07:07:32;;;;;;;6.50;3.60;;;;;;;;;;107954;293;42794;-41
2023/08/29 07:10:09;;;;;;;6.40;3.40;;;;;;;;;;107946;293;42063;-41
2023/08/29 07:12:42;;;;;;;5.50;3.10;;;;;;;;;;107986;293;39813;-41
2023/08/29 07:15:16;;;;;;;5.60;3.10;;;;;;;;;;107980;293;40809;-41
2023/08/29 07:17:50;;;;;;;5.20;3.00;;;;;;;;;;107968;293;42948;-41
2023/08/29 07:20:24;;;;;;;4.70;2.80;;;;;;;;;;107943;293;42095;-41
2023/08/29 07:23:02;;;;;;;5.40;3.10;;;;;;;;;;107870;293;175505;-40
2023/08/29 07:25:45;;;;;;;5.50;2.80;;;;;;;;;;107980;293;39687;-41
2023/08/29 07:28:19;;;;;;;5.20;2.70;;;;;;;;;;107955;285;42916;-41
2023/08/29 07:30:53;;;;;;;5.00;2.60;;;;;;;;;;107959;293;42100;-41
2023/08/29 07:33:30;;;;;;;4.70;2.70;;;;;;;;;;107911;289;38762;-41
2023/08/29 07:36:04;;;;;;;4.60;2.70;;;;;;;;;;107962;293;39610;-41
2023/08/29 07:38:38;;;;;;;5.00;2.80;;;;;;;;;;107957;293;42734;-40
2023/08/29 07:41:14;;;;;;;6.40;2.90;;;;;;;;;;108019;285;42245;-38
2023/08/29 07:43:47;;;;;;;5.00;2.60;;;;;;;;;;108013;293;38703;-40
2023/08/29 07:46:23;;;;;;;5.40;3.00;;;;;;;;;;107999;293;39637;-39
2023/08/29 07:48:57;;;;;;;5.50;2.90;;;;;;;;;;107965;293;42777;-39
2023/08/29 07:51:30;;;;;;;5.60;2.90;;;;;;;;;;107948;293;42144;-39
2023/08/29 07:54:06;;;;;;;5.90;2.80;;;;;;;;;;107355;293;908695;-39
2023/08/29 07:56:41;;;;;;;5.70;2.90;;;;;;;;;;108028;293;39651;-38
2023/08/29 07:59:14;;;;;;;5.60;3.10;;;;;;;;;;107938;293;42955;-39
2023/08/29 08:01:48;;;;;;;5.50;3.00;;;;;;;;;;107857;293;175553;-38
2023/08/29 08:04:23;;;;;;;6.10;3.10;;;;;;;;;;107995;285;38749;-39
2023/08/29 08:06:57;;;;;;;6.60;3.40;;;;;;;;;;107971;293;40963;-38
2023/08/29 08:09:30;;;;;;;6.30;3.40;;;;;;;;;;107943;293;42815;-39
2023/08/29 08:12:05;;;;;;;6.70;3.70;;;;;;;;;;107923;293;43455;-42
2023/08/29 08:14:39;;;;;;;5.80;3.60;;;;;;;;;;107953;293;40026;-36
2023/08/29 08:17:12;;;;;;;6.00;3.60;;;;;;;;;;107977;293;39646;-37
2023/08/29 08:19:46;;;;;;;6.90;3.80;;;;;;;;;;107896;285;49603;-40
2023/08/29 08:22:20;;;;;;;7.10;4.20;;;;;;;;;;107942;285;42300;-38
2023/08/29 08:24:55;;;;;;;6.70;3.80;;;;;;;;;;108013;293;38729;-40
2023/08/29 08:27:31;;;;;;;6.40;4.00;;;;;;;;;;107943;293;39884;-37
2023/08/29 08:30:07;;;;;;;6.50;3.90;;;;;;;;;;107885;293;49738;-44
2023/08/29 08:32:43;;;;;;;6.40;3.90;;;;;;;;;;107995;293;42088;-45
2023/08/29 08:35:17;;;;;;;6.70;3.70;;;;;;;;;;107965;293;38496;-45
2023/08/29 08:37:50;;;;;;;5.50;3.60;;;;;;;;;;108013;293;39653;-45
2023/08/29 08:40:24;;;;;;;6.60;4.10;;;;;;;;;;107866;293;48730;-45
2023/08/29 08:43:02;;;;;;;6.20;4.20;;;;;;;;;;107971;293;42057;-45
2023/08/29 08:45:37;;;;;;;6.50;3.80;;;;;;;;;;107931;293;38866;-46
2023/08/29 08:48:16;;;;;;;6.40;4.00;;;;;;;;;;107969;293;39606;-46
2023/08/29 08:50:56;;;;;;;6.40;3.90;;;;;;;;;;107918;293;50219;-45
2023/08/29 08:53:35;;;;;;;7.20;4.00;;;;;;;;;;107933;293;42108;-45
2023/08/29 08:56:10;;;;;;;5.50;3.70;;;;;;;;;;107905;293;39128;-45
2023/08/29 08:58:44;;;;;;;7.40;3.80;;;;;;;;;;107902;293;40906;-44
2023/08/29 09:01:20;;;;;;;6.80;4.00;;;;;;;;;;107959;294;42698;-45
2023/08/29 09:04:00;;;;;;;7.50;4.20;;;;;;;;;;107912;294;41869;-45
2023/08/29 09:06:38;;;;;;;6.30;4.20;;;;;;;;;;107963;294;38530;-45
2023/08/29 09:09:23;;;;;;;6.70;4.20;;;;;;;;;;107972;294;39398;-45
2023/08/29 09:11:58;;;;;;;6.60;4.00;;;;;;;;;;107932;294;42923;-45
2023/08/29 09:14:33;;;;;;;7.30;4.00;;;;;;;;;;107988;294;42315;-45
2023/08/29 09:17:10;;;;;;;7.00;4.10;;;;;;;;;;107955;294;38935;-45
2023/08/29 09:19:44;;;;;;;6.70;4.10;;;;;;;;;;107984;294;39625;-45
2023/08/29 09:22:20;;;;;;;6.40;4.40;;;;;;;;;;107978;294;43954;-44
2023/08/29 09:24:54;;;;;;;6.90;4.60;;;;;;;;;;107932;294;43875;-46
2023/08/29 09:27:27;;;;;;;6.40;4.40;;;;;;;;;;107985;293;39971;-45
2023/08/29 09:30:19;;;;;;;7.30;4.40;;;;;;;;;;107935;293;39654;-46
2023/08/29 09:32:54;;;;;;;7.20;4.00;;;;;;;;;;107966;293;43459;-46
2023/08/29 09:35:30;;;;;;;5.80;4.20;;;;;;;;;;107966;293;42158;-46
2023/08/29 09:38:05;;;;;;;6.80;4.50;;;;;;;;;;107973;294;38734;-45
2023/08/29 09:40:51;;;;;;;8.00;5.00;;;;;;;;;;107927;294;39710;-44
2023/08/29 09:43:25;;;;;;;7.50;4.90;;;;;;;;;;107979;294;42832;-44
2023/08/29 09:45:59;;;;;;;7.70;5.00;;;;;;;;;;107944;294;43391;-44
2023/08/29 09:48:34;;;;;;;8.70;5.40;;;;;;;;;;108021;294;38968;-44
2023/08/29 09:51:10;;;;;;;7.40;4.90;;;;;;;;;;107953;294;39557;-44
2023/08/29 09:53:44;;;;;;;9.30;5.70;;;;;;;;;;108011;294;42886;-45
2023/08/29 09:56:22;;;;;;;8.30;5.40;;;;;;;;;;107955;294;43309;-45
2023/08/29 09:58:59;;;;;;;7.90;5.50;;;;;;;;;;107980;294;38899;-46
2023/08/29 10:01:33;;;;;;;8.30;5.60;;;;;;;;;;107933;293;39583;-45
2023/08/29 10:04:14;;;;;;;8.00;5.60;;;;;;;;;;107998;293;42732;-45
2023/08/29 10:06:51;;;;;;;8.70;6.10;;;;;;;;;;107984;293;42021;-45
2023/08/29 10:09:27;;;;;;;8.50;5.60;;;;;;;;;;107983;293;38967;-45
2023/08/29 10:12:01;;;;;;;8.60;5.70;;;;;;;;;;107955;293;40998;-45
2023/08/29 10:14:35;;;;;;;8.50;5.80;;;;;;;;;;107897;293;174950;-44
2023/08/29 10:17:09;;;;;;;8.50;5.90;;;;;;;;;;107934;293;43308;-44
2023/08/29 10:19:51;;;;;;;8.90;5.80;;;;;;;;;;107961;293;39333;-44
2023/08/29 10:22:26;;;;;;;9.20;6.30;;;;;;;;;;107943;293;39582;-44
2023/08/29 10:25:00;;;;;;;9.70;6.70;;;;;;;;;;107971;293;42822;-44
2023/08/29 10:27:35;;;;;;;10.10;6.90;;;;;;;;;;107984;293;42323;-45
2023/08/29 10:30:14;;;;;;;9.30;6.80;;;;;;;;;;107941;293;38849;-44
2023/08/29 10:32:50;;;;;;;10.50;6.90;;;;;;;;;;108056;293;45309;-44
2023/08/29 10:35:29;;;;;;;10.10;6.90;;;;;;;;;;107953;293;44025;-45
2023/08/29 10:38:10;;;;;;;10.20;7.40;;;;;;;;;;108008;293;42147;-44
2023/08/29 10:40:47;;;;;;;10.10;6.80;;;;;;;;;;107967;293;39990;-43
2023/08/29 10:43:23;;;;;;;10.10;7.20;;;;;;;;;;107996;293;39353;-44
2023/08/29 10:46:13;;;;;;;9.70;7.00;;;;;;;;;;107977;293;42873;-43
2023/08/29 10:48:56;;;;;;;10.30;7.70;;;;;;;;;;107913;293;42062;-44
2023/08/29 10:51:32;;;;;;;10.70;7.30;;;;;;;;;;107963;293;38673;-44
2023/08/29 10:54:06;;;;;;;10.10;7.10;;;;;;;;;;108041;293;40888;-45
2023/08/29 10:56:48;;;;;;;10.20;7.20;;;;;;;;;;108038;293;42763;-45
2023/08/29 10:59:32;;;;;;;;;;;;;;;;;;108045;293;42072;-44
2023/08/29 11:02:27;;;;;;;9.50;7.60;;;;;;;;;;107936;293;38852;-45
2023/08/29 11:05:16;;;;;;;11.10;7.90;;;;;;;;;;108031;293;39622;-44
2023/08/29 11:07:53;;;;;;;11.40;8.00;;;;;;;;;;108019;293;43973;-44
2023/08/29 11:10:26;;;;;;;10.60;7.70;;;;;;;;;;107991;293;42151;-44
2023/08/29 11:13:15;;;;;;;8.90;7.30;;;;;;;;;;107972;293;39982;-43
2023/08/29 11:16:08;;;;;;;10.60;7.60;;;;;;;;;;107778;293;175472;-43
2023/08/29 11:18:43;;;;;;;9.50;7.50;;;;;;;;;;107974;293;44108;-45
2023/08/29 11:21:19;;;;;;;10.70;7.60;;;;;;;;;;108011;293;42160;-44
2023/08/29 11:23:55;;;;;;;11.10;7.80;;;;;;;;;;107954;293;46023;-44
2023/08/29 11:26:51;;;;;;;9.70;7.60;;;;;;;;;;107982;293;39327;-45
2023/08/29 11:29:27;;;;;;;9.60;7.50;;;;;;;;;;107959;293;42873;-44
2023/08/29 11:32:01;;;;;;;10.60;8.00;;;;;;;;;;107937;293;42028;-44
2023/08/29 11:34:38;;;;;;;10.50;8.10;;;;;;;;;;108012;293;38839;-45
2023/08/29 11:37:14;;;;;;;10.50;7.90;;;;;;;;;;108058;293;39354;-45
2023/08/29 11:40:09;;;;;;;9.60;7.70;;;;;;;;;;108069;293;42761;-45
2023/08/29 11:42:47;;;;;;;10.80;8.00;;;;;;;;;;107955;293;42427;-43
2023/08/29 11:45:44;;;;;;;11.30;8.20;;;;;;;;;;108070;293;40026;-44
2023/08/29 11:48:28;;;;;;;10.30;8.40;;;;;;;;;;108127;293;41112;-43
2023/08/29 11:51:06;;;;;;;10.30;8.40;;;;;;;;;;107931;293;175470;-43
2023/08/29 11:53:42;;;;;;;10.10;8.10;;;;;;;;;;107993;293;42302;-43
2023/08/29 11:56:15;;;;;;;10.60;8.50;;;;;;;;;;108080;293;39954;-43
2023/08/29 11:58:49;;;;;;;10.20;8.20;;;;;;;;;;108052;293;39806;-43
2023/08/29 12:01:25;;;;;;;10.50;8.30;;;;;;;;;;107886;293;175444;-44
2023/08/29 12:04:01;;;;;;;11.40;8.40;;;;;;;;;;107958;293;41995;-44
2023/08/29 12:06:34;;;;;;;10.90;8.80;;;;;;;;;;108003;293;38902;-44
2023/08/29 12:09:23;;;;;;;10.40;8.60;;;;;;;;;;107992;293;39571;-44
2023/08/29 12:11:56;;;;;;;10.30;8.60;;;;;;;;;;108038;293;41778;-44
2023/08/29 12:14:32;;;;;;;11.20;9.00;;;;;;;;;;107927;293;43370;-44
2023/08/29 12:17:06;;;;;;;10.70;9.00;;;;;;;;;;107947;293;38793;-44
2023/08/29 12:19:41;;;;;;;11.50;9.30;;;;;;;;;;108007;293;40718;-44
2023/08/29 12:22:19;;;;;;;11.90;9.10;;;;;;;;;;107936;293;43007;-44
2023/08/29 12:24:58;;;;;;;11.30;9.10;;;;;;;;;;107921;293;42382;-44
2023/08/29 12:27:32;;;;;;;11.60;9.60;;;;;;;;;;107996;293;38687;-43
2023/08/29 12:30:12;;;;;;;11.90;9.50;;;;;;;;;;107970;293;39666;-45
2023/08/29 12:32:47;;;;;;;11.90;9.30;;;;;;;;;;107963;293;42799;-44
2023/08/29 12:35:23;;;;;;;12.10;9.70;;;;;;;;;;107943;293;48335;-44
2023/08/29 12:37:57;;;;;;;11.10;9.90;;;;;;;;;;108023;293;38762;-44
2023/08/29 12:40:31;;;;;;;11.00;9.00;;;;;;;;;;107925;293;40997;-44
2023/08/29 12:43:05;;;;;;;12.00;9.40;;;;;;;;;;107892;293;42601;-44
2023/08/29 12:45:38;;;;;;;10.60;9.10;;;;;;;;;;108072;293;48844;-44
2023/08/29 12:48:29;;;;;;;11.30;9.40;;;;;;;;;;107983;293;40140;-44
2023/08/29 12:51:03;;;;;;;11.40;9.70;;;;;;;;;;107986;293;39632;-44
2023/08/29 12:53:36;;;;;;;11.70;10.00;;;;;;;;;;107924;293;44014;-45
2023/08/29 12:56:10;;;;;;;12.00;9.90;;;;;;;;;;107962;293;48434;-45
2023/08/29 12:58:44;;;;;;;12.20;9.90;;;;;;;;;;108014;293;38708;-44
2023/08/29 13:01:18;;;;;;;10.80;9.00;;;;;;;;;;107974;293;39567;-44
2023/08/29 13:03:51;;;;;;;10.10;8.70;;;;;;;;;;107798;294;175490;-44
2023/08/29 13:06:25;;;;;;;10.50;8.80;;;;;;;;;;107979;294;47795;-43
2023/08/29 13:08:59;;;;;;;11.20;9.00;;;;;;;;;;107593;294;333275;-44
2023/08/29 13:11:32;;;;;;;10.60;8.40;;;;;;;;;;107998;294;40853;-44
2023/08/29 13:14:07;;;;;;;11.40;8.60;;;;;;;;;;107939;294;42695;-47
2023/08/29 13:16:44;;;;;;;9.50;7.80;;;;;;;;;;107939;294;49571;-44
2023/08/29 13:19:17;;;;;;;10.50;7.90;;;;;;;;;;107979;294;38703;-44
2023/08/29 13:21:52;;;;;;;9.50;8.20;;;;;;;;;;107998;294;41065;-45
2023/08/29 13:24:25;;;;;;;9.20;7.80;;;;;;;;;;107285;293;890868;-44
2023/08/29 13:27:01;;;;;;;9.60;8.30;;;;;;;;;;107985;293;48611;-44
2023/08/29 13:29:34;;;;;;;9.60;7.80;;;;;;;;;;108033;293;38703;-44
2023/08/29 13:32:11;;;;;;;9.90;8.00;;;;;;;;;;107992;293;39787;-44
2023/08/29 13:34:44;;;;;;;9.90;7.70;;;;;;;;;;107948;293;42523;-44
2023/08/29 13:37:17;;;;;;;9.20;7.70;;;;;;;;;;107983;293;48122;-44
2023/08/29 13:39:58;;;;;;;9.20;7.60;;;;;;;;;;108024;293;38734;-45
2023/08/29 13:42:31;;;;;;;8.90;7.30;;;;;;;;;;107917;293;39511;-44
2023/08/29 13:45:07;;;;;;;8.70;7.10;;;;;;;;;;107972;293;42773;-45
2023/08/29 13:47:40;;;;;;;8.90;7.20;;;;;;;;;;107978;293;42147;-44
2023/08/29 13:50:16;;;;;;;7.90;6.40;;;;;;;;;;108000;293;38758;-45
2023/08/29 13:52:49;;;;;;;8.80;6.90;;;;;;;;;;108010;293;40845;-45
2023/08/29 13:55:22;;;;;;;7.70;6.60;;;;;;;;;;107948;293;42853;-44
2023/08/29 13:57:56;;;;;;;8.10;7.20;;;;;;;;;;107970;293;43293;-44
2023/08/29 14:00:29;;;;;;;7.50;6.70;;;;;;;;;;107947;293;38715;-44
2023/08/29 14:03:04;;;;;;;7.60;6.20;;;;;;;;;;107943;293;41053;-43
2023/08/29 14:05:39;;;;;;;9.40;7.70;;;;;;;;;;107907;284;42847;-41
2023/08/29 14:08:15;;;;;;;7.90;6.80;;;;;;;;;;107981;285;42505;-43
2023/08/29 14:10:48;;;;;;;10.00;7.90;;;;;;;;;;108024;284;38642;-42
2023/08/29 14:13:23;;;;;;;9.10;8.20;;;;;;;;;;107919;284;41762;-44
2023/08/29 14:16:08;;;;;;;8.50;7.70;;;;;;;;;;107898;288;42475;-45
2023/08/29 14:18:46;;;;;;;9.10;8.00;;;;;;;;;;107816;291;175431;-42
2023/08/29 14:21:19;;;;;;;9.40;8.10;;;;;;;;;;108007;291;38698;-45
2023/08/29 14:23:56;;;;;;;9.90;8.50;;;;;;;;;;107996;291;41115;-44
2023/08/29 14:26:38;;;;;;;12.40;9.70;;;;;;;;;;107935;291;42935;-46
2023/08/29 14:29:13;;;;;;;13.50;10.50;;;;;;;;;;107943;292;42235;-45
2023/08/29 14:31:51;;;;;;;11.40;9.80;;;;;;;;;;107985;292;38571;-46
2023/08/29 14:34:28;;;;;;;11.00;9.20;;;;;;;;;;108035;288;40806;-46
2023/08/29 14:37:02;;;;;;;11.40;9.00;;;;;;;;;;107961;291;42842;-43
2023/08/29 14:39:36;;;;;;;10.80;9.10;;;;;;;;;;108008;291;42234;-45
2023/08/29 14:42:11;;;;;;;9.80;8.80;;;;;;;;;;108016;291;38679;-44
2023/08/29 14:44:44;;;;;;;9.90;8.40;;;;;;;;;;107987;291;39801;-45
2023/08/29 14:47:17;;;;;;;9.90;8.90;;;;;;;;;;107963;284;42950;-46
2023/08/29 14:49:51;;;;;;;9.30;8.30;;;;;;;;;;107921;291;174918;-46
2023/08/29 14:52:27;;;;;;;9.60;8.60;;;;;;;;;;107979;284;38719;-45
2023/08/29 14:55:01;;;;;;;9.70;8.70;;;;;;;;;;108023;291;40849;-42
2023/08/29 14:57:38;;;;;;;9.50;8.20;;;;;;;;;;107965;288;42482;-45
2023/08/29 15:00:17;;;;;;;10.40;9.10;;;;;;;;;;107966;291;42048;-42
2023/08/29 15:02:54;;;;;;;10.40;9.20;;;;;;;;;;108046;284;38713;-42
2023/08/29 15:05:29;;;;;;;10.10;9.10;;;;;;;;;;108024;284;39720;-47
2023/08/29 15:08:08;;;;;;;11.00;9.40;;;;;;;;;;107919;292;42531;-45
2023/08/29 15:10:42;;;;;;;9.70;8.70;;;;;;;;;;107994;288;42083;-46
2023/08/29 15:13:17;;;;;;;10.20;9.10;;;;;;;;;;108003;291;38697;-46
2023/08/29 15:15:57;;;;;;;9.50;8.50;;;;;;;;;;108017;288;39760;-46
2023/08/29 15:18:34;;;;;;;10.20;8.90;;;;;;;;;;107911;288;42765;-46
2023/08/29 15:21:12;;;;;;;10.40;8.70;;;;;;;;;;107992;291;43296;-46
2023/08/29 15:23:48;;;;;;;10.40;8.60;;;;;;;;;;107969;288;38632;-46
2023/08/29 15:26:25;;;;;;;8.90;8.00;;;;;;;;;;107995;284;39873;-46
2023/08/29 15:29:01;;;;;;;9.60;8.30;;;;;;;;;;107934;291;43056;-46
2023/08/29 15:31:38;;;;;;;9.60;8.60;;;;;;;;;;107946;291;42089;-46